sensor_id;sensor_type;location;lat;lon;timestamp;P1;durP1;ratioP1;P2;durP2;ratioP2
11681;SDS011;5897;42.640;23.310;2023-03-14T00:02:25;13.93;;;9.02;;
11681;SDS011;5897;42.640;23.310;2023-03-14T00:04:53;13.35;;;8.18;;
11681;SDS011;5897;42.640;23.310;2023-03-14T00:07:21;15.00;;;8.13;;
11681;SDS011;5897;42.640;23.310;2023-03-14T00:09:51;13.00;;;8.30;;
11681;SDS011;5897;42.640;23.310;2023-03-14T00:12:17;12.10;;;8.07;;
11681;SDS011;5897;42.640;23.310;2023-03-14T00:14:44;13.73;;;7.97;;
11681;SDS011;5897;42.640;23.310;2023-03-14T00:17:11;10.90;;;8.93;;
11681;SDS011;5897;42.640;23.310;2023-03-14T00:19:38;12.90;;;8.63;;
11681;SDS011;5897;42.640;23.310;2023-03-14T00:22:05;15.18;;;9.30;;
11681;SDS011;5897;42.640;23.310;2023-03-14T00:24:32;13.43;;;9.83;;
11681;SDS011;5897;42.640;23.310;2023-03-14T00:27:01;11.43;;;8.90;;
11681;SDS011;5897;42.640;23.310;2023-03-14T00:29:27;13.63;;;9.97;;
11681;SDS011;5897;42.640;23.310;2023-03-14T00:31:54;13.45;;;9.70;;
11681;SDS011;5897;42.640;23.310;2023-03-14T00:34:21;12.23;;;9.50;;
11681;SDS011;5897;42.640;23.310;2023-03-14T00:36:48;17.33;;;11.37;;
11681;SDS011;5897;42.640;23.310;2023-03-14T00:39:15;15.45;;;11.30;;
11681;SDS011;5897;42.640;23.310;2023-03-14T00:41:42;14.57;;;11.23;;
11681;SDS011;5897;42.640;23.310;2023-03-14T00:44:11;17.30;;;12.17;;
11681;SDS011;5897;42.640;23.310;2023-03-14T00:46:37;14.63;;;11.10;;
11681;SDS011;5897;42.640;23.310;2023-03-14T00:49:04;15.73;;;10.80;;
11681;SDS011;5897;42.640;23.310;2023-03-14T00:51:31;15.23;;;11.20;;
11681;SDS011;5897;42.640;23.310;2023-03-14T00:53:59;15.88;;;9.93;;
11681;SDS011;5897;42.640;23.310;2023-03-14T00:56:26;13.07;;;9.07;;
11681;SDS011;5897;42.640;23.310;2023-03-14T00:58:53;11.60;;;8.43;;
11681;SDS011;5897;42.640;23.310;2023-03-14T01:01:22;12.73;;;9.27;;
11681;SDS011;5897;42.640;23.310;2023-03-14T01:03:50;14.97;;;9.97;;
11681;SDS011;5897;42.640;23.310;2023-03-14T01:06:18;13.00;;;9.27;;
11681;SDS011;5897;42.640;23.310;2023-03-14T01:08:46;14.87;;;9.80;;
11681;SDS011;5897;42.640;23.310;2023-03-14T01:11:14;13.17;;;8.67;;
11681;SDS011;5897;42.640;23.310;2023-03-14T01:13:42;12.23;;;8.77;;
11681;SDS011;5897;42.640;23.310;2023-03-14T01:16:11;13.83;;;9.37;;
11681;SDS011;5897;42.640;23.310;2023-03-14T01:18:41;13.13;;;10.13;;
11681;SDS011;5897;42.640;23.310;2023-03-14T01:21:10;13.13;;;9.10;;
11681;SDS011;5897;42.640;23.310;2023-03-14T01:23:38;14.07;;;8.98;;
11681;SDS011;5897;42.640;23.310;2023-03-14T01:26:07;11.20;;;8.53;;
11681;SDS011;5897;42.640;23.310;2023-03-14T01:28:34;15.37;;;9.20;;
11681;SDS011;5897;42.640;23.310;2023-03-14T01:31:02;15.43;;;7.80;;
11681;SDS011;5897;42.640;23.310;2023-03-14T01:33:29;11.03;;;7.33;;
11681;SDS011;5897;42.640;23.310;2023-03-14T01:35:57;14.13;;;8.73;;
11681;SDS011;5897;42.640;23.310;2023-03-14T01:38:24;14.37;;;9.47;;
11681;SDS011;5897;42.640;23.310;2023-03-14T01:40:51;13.27;;;8.90;;
11681;SDS011;5897;42.640;23.310;2023-03-14T01:43:18;13.60;;;9.00;;
11681;SDS011;5897;42.640;23.310;2023-03-14T01:46:06;12.27;;;8.47;;
11681;SDS011;5897;42.640;23.310;2023-03-14T01:48:44;12.07;;;8.23;;
11681;SDS011;5897;42.640;23.310;2023-03-14T01:51:19;11.70;;;8.47;;
11681;SDS011;5897;42.640;23.310;2023-03-14T01:53:49;12.33;;;8.80;;
11681;SDS011;5897;42.640;23.310;2023-03-14T01:56:19;13.93;;;9.60;;
11681;SDS011;5897;42.640;23.310;2023-03-14T01:58:47;12.97;;;9.70;;
11681;SDS011;5897;42.640;23.310;2023-03-14T02:01:18;12.43;;;9.60;;
11681;SDS011;5897;42.640;23.310;2023-03-14T02:03:48;15.77;;;9.00;;
11681;SDS011;5897;42.640;23.310;2023-03-14T02:06:21;15.07;;;9.40;;
11681;SDS011;5897;42.640;23.310;2023-03-14T02:08:50;12.90;;;9.27;;
11681;SDS011;5897;42.640;23.310;2023-03-14T02:11:17;14.43;;;9.83;;
11681;SDS011;5897;42.640;23.310;2023-03-14T02:13:45;13.63;;;9.63;;
11681;SDS011;5897;42.640;23.310;2023-03-14T02:16:12;16.03;;;9.77;;
11681;SDS011;5897;42.640;23.310;2023-03-14T02:18:39;14.60;;;9.47;;
11681;SDS011;5897;42.640;23.310;2023-03-14T02:21:09;12.03;;;8.80;;
11681;SDS011;5897;42.640;23.310;2023-03-14T02:23:45;10.43;;;8.37;;
11681;SDS011;5897;42.640;23.310;2023-03-14T02:26:19;10.93;;;7.30;;
11681;SDS011;5897;42.640;23.310;2023-03-14T02:28:50;9.37;;;7.10;;
11681;SDS011;5897;42.640;23.310;2023-03-14T02:31:19;9.50;;;6.63;;
11681;SDS011;5897;42.640;23.310;2023-03-14T02:33:47;8.87;;;6.70;;
11681;SDS011;5897;42.640;23.310;2023-03-14T02:36:14;13.23;;;6.73;;
11681;SDS011;5897;42.640;23.310;2023-03-14T02:38:44;16.70;;;8.83;;
11681;SDS011;5897;42.640;23.310;2023-03-14T02:41:14;21.80;;;9.97;;
11681;SDS011;5897;42.640;23.310;2023-03-14T02:43:42;25.37;;;10.43;;
11681;SDS011;5897;42.640;23.310;2023-03-14T02:46:11;20.00;;;8.97;;
11681;SDS011;5897;42.640;23.310;2023-03-14T02:48:41;13.43;;;7.87;;
11681;SDS011;5897;42.640;23.310;2023-03-14T02:51:12;16.13;;;8.33;;
11681;SDS011;5897;42.640;23.310;2023-03-14T02:53:40;16.23;;;8.27;;
11681;SDS011;5897;42.640;23.310;2023-03-14T02:56:08;15.87;;;9.17;;
11681;SDS011;5897;42.640;23.310;2023-03-14T02:58:36;10.60;;;7.13;;
11681;SDS011;5897;42.640;23.310;2023-03-14T03:01:03;10.53;;;7.10;;
11681;SDS011;5897;42.640;23.310;2023-03-14T03:03:31;10.77;;;7.40;;
11681;SDS011;5897;42.640;23.310;2023-03-14T03:05:58;9.33;;;6.80;;
11681;SDS011;5897;42.640;23.310;2023-03-14T03:08:25;8.13;;;6.13;;
11681;SDS011;5897;42.640;23.310;2023-03-14T03:10:54;8.70;;;6.23;;
11681;SDS011;5897;42.640;23.310;2023-03-14T03:13:22;9.63;;;6.80;;
11681;SDS011;5897;42.640;23.310;2023-03-14T03:15:49;8.67;;;6.90;;
11681;SDS011;5897;42.640;23.310;2023-03-14T03:18:16;14.00;;;7.50;;
11681;SDS011;5897;42.640;23.310;2023-03-14T03:20:44;10.73;;;6.57;;
11681;SDS011;5897;42.640;23.310;2023-03-14T03:23:11;9.90;;;6.83;;
11681;SDS011;5897;42.640;23.310;2023-03-14T03:25:38;8.73;;;6.50;;
11681;SDS011;5897;42.640;23.310;2023-03-14T03:28:05;9.07;;;5.90;;
11681;SDS011;5897;42.640;23.310;2023-03-14T03:30:33;6.97;;;5.67;;
11681;SDS011;5897;42.640;23.310;2023-03-14T03:33:03;8.07;;;6.40;;
11681;SDS011;5897;42.640;23.310;2023-03-14T03:35:30;8.70;;;6.53;;
11681;SDS011;5897;42.640;23.310;2023-03-14T03:37:58;9.27;;;6.57;;
11681;SDS011;5897;42.640;23.310;2023-03-14T03:40:25;12.67;;;7.53;;
11681;SDS011;5897;42.640;23.310;2023-03-14T03:42:52;10.13;;;7.40;;
11681;SDS011;5897;42.640;23.310;2023-03-14T03:45:19;9.70;;;7.20;;
11681;SDS011;5897;42.640;23.310;2023-03-14T03:47:46;10.70;;;7.30;;
11681;SDS011;5897;42.640;23.310;2023-03-14T03:50:13;9.73;;;7.20;;
11681;SDS011;5897;42.640;23.310;2023-03-14T03:52:40;10.33;;;7.27;;
11681;SDS011;5897;42.640;23.310;2023-03-14T03:55:08;9.37;;;7.37;;
11681;SDS011;5897;42.640;23.310;2023-03-14T03:57:35;9.70;;;7.17;;
11681;SDS011;5897;42.640;23.310;2023-03-14T04:00:03;8.33;;;6.90;;
11681;SDS011;5897;42.640;23.310;2023-03-14T04:02:31;11.23;;;7.67;;
11681;SDS011;5897;42.640;23.310;2023-03-14T04:04:58;10.47;;;6.80;;
11681;SDS011;5897;42.640;23.310;2023-03-14T04:07:25;11.00;;;7.70;;
11681;SDS011;5897;42.640;23.310;2023-03-14T04:09:52;9.37;;;7.70;;
11681;SDS011;5897;42.640;23.310;2023-03-14T04:12:20;9.80;;;6.37;;
11681;SDS011;5897;42.640;23.310;2023-03-14T04:14:47;10.00;;;6.00;;
11681;SDS011;5897;42.640;23.310;2023-03-14T04:17:13;11.97;;;7.63;;
11681;SDS011;5897;42.640;23.310;2023-03-14T04:19:40;16.90;;;8.03;;
11681;SDS011;5897;42.640;23.310;2023-03-14T04:22:07;9.93;;;6.73;;
11681;SDS011;5897;42.640;23.310;2023-03-14T04:24:34;7.93;;;6.27;;
11681;SDS011;5897;42.640;23.310;2023-03-14T04:27:01;9.90;;;6.37;;
11681;SDS011;5897;42.640;23.310;2023-03-14T04:29:29;9.27;;;6.70;;
11681;SDS011;5897;42.640;23.310;2023-03-14T04:31:56;10.00;;;7.50;;
11681;SDS011;5897;42.640;23.310;2023-03-14T04:34:22;10.40;;;7.30;;
11681;SDS011;5897;42.640;23.310;2023-03-14T04:36:49;10.43;;;7.00;;
11681;SDS011;5897;42.640;23.310;2023-03-14T04:39:16;10.93;;;7.97;;
11681;SDS011;5897;42.640;23.310;2023-03-14T04:41:43;12.67;;;9.20;;
11681;SDS011;5897;42.640;23.310;2023-03-14T04:44:10;13.37;;;8.40;;
11681;SDS011;5897;42.640;23.310;2023-03-14T04:46:38;15.13;;;9.97;;
11681;SDS011;5897;42.640;23.310;2023-03-14T04:49:05;23.50;;;12.13;;
11681;SDS011;5897;42.640;23.310;2023-03-14T04:51:32;49.90;;;21.30;;
11681;SDS011;5897;42.640;23.310;2023-03-14T04:53:59;20.40;;;12.17;;
11681;SDS011;5897;42.640;23.310;2023-03-14T04:56:26;14.00;;;8.83;;
11681;SDS011;5897;42.640;23.310;2023-03-14T04:58:53;13.50;;;10.13;;
11681;SDS011;5897;42.640;23.310;2023-03-14T05:01:20;14.87;;;10.43;;
11681;SDS011;5897;42.640;23.310;2023-03-14T05:03:49;16.03;;;11.00;;
11681;SDS011;5897;42.640;23.310;2023-03-14T05:06:15;16.10;;;11.97;;
11681;SDS011;5897;42.640;23.310;2023-03-14T05:08:42;26.23;;;17.97;;
11681;SDS011;5897;42.640;23.310;2023-03-14T05:11:10;22.67;;;13.63;;
11681;SDS011;5897;42.640;23.310;2023-03-14T05:13:37;15.30;;;11.83;;
11681;SDS011;5897;42.640;23.310;2023-03-14T05:16:05;18.30;;;11.67;;
11681;SDS011;5897;42.640;23.310;2023-03-14T05:18:33;19.97;;;10.63;;
11681;SDS011;5897;42.640;23.310;2023-03-14T05:21:01;72.60;;;27.93;;
11681;SDS011;5897;42.640;23.310;2023-03-14T05:23:29;74.43;;;27.67;;
11681;SDS011;5897;42.640;23.310;2023-03-14T05:25:56;58.17;;;23.10;;
11681;SDS011;5897;42.640;23.310;2023-03-14T05:28:23;49.47;;;21.50;;
11681;SDS011;5897;42.640;23.310;2023-03-14T05:30:49;50.97;;;23.37;;
11681;SDS011;5897;42.640;23.310;2023-03-14T05:33:16;34.37;;;18.00;;
11681;SDS011;5897;42.640;23.310;2023-03-14T05:35:43;29.73;;;15.43;;
11681;SDS011;5897;42.640;23.310;2023-03-14T05:38:11;22.50;;;12.67;;
11681;SDS011;5897;42.640;23.310;2023-03-14T05:40:38;27.17;;;14.20;;
11681;SDS011;5897;42.640;23.310;2023-03-14T05:43:04;21.30;;;12.37;;
11681;SDS011;5897;42.640;23.310;2023-03-14T05:45:33;21.70;;;12.30;;
11681;SDS011;5897;42.640;23.310;2023-03-14T05:48:00;20.53;;;10.93;;
11681;SDS011;5897;42.640;23.310;2023-03-14T05:50:27;17.10;;;10.60;;
11681;SDS011;5897;42.640;23.310;2023-03-14T05:52:53;17.47;;;10.90;;
11681;SDS011;5897;42.640;23.310;2023-03-14T05:55:22;14.93;;;10.43;;
11681;SDS011;5897;42.640;23.310;2023-03-14T05:57:49;17.77;;;11.13;;
11681;SDS011;5897;42.640;23.310;2023-03-14T06:00:16;19.23;;;11.73;;
11681;SDS011;5897;42.640;23.310;2023-03-14T06:02:43;18.27;;;12.00;;
11681;SDS011;5897;42.640;23.310;2023-03-14T06:05:10;20.38;;;12.10;;
11681;SDS011;5897;42.640;23.310;2023-03-14T06:07:38;19.70;;;11.50;;
11681;SDS011;5897;42.640;23.310;2023-03-14T06:10:05;20.38;;;11.85;;
11681;SDS011;5897;42.640;23.310;2023-03-14T06:12:34;22.40;;;12.85;;
11681;SDS011;5897;42.640;23.310;2023-03-14T06:15:00;20.60;;;12.27;;
11681;SDS011;5897;42.640;23.310;2023-03-14T06:17:27;25.67;;;12.85;;
11681;SDS011;5897;42.640;23.310;2023-03-14T06:19:54;22.70;;;12.05;;
11681;SDS011;5897;42.640;23.310;2023-03-14T06:22:21;20.13;;;11.48;;
11681;SDS011;5897;42.640;23.310;2023-03-14T06:24:48;17.38;;;11.32;;
11681;SDS011;5897;42.640;23.310;2023-03-14T06:27:15;16.80;;;11.43;;
11681;SDS011;5897;42.640;23.310;2023-03-14T06:29:43;19.08;;;11.65;;
11681;SDS011;5897;42.640;23.310;2023-03-14T06:32:10;15.95;;;11.30;;
11681;SDS011;5897;42.640;23.310;2023-03-14T06:34:37;15.63;;;10.65;;
11681;SDS011;5897;42.640;23.310;2023-03-14T06:37:05;17.55;;;11.10;;
11681;SDS011;5897;42.640;23.310;2023-03-14T06:39:32;19.55;;;11.38;;
11681;SDS011;5897;42.640;23.310;2023-03-14T06:41:59;19.98;;;10.35;;
11681;SDS011;5897;42.640;23.310;2023-03-14T06:44:26;19.30;;;10.95;;
11681;SDS011;5897;42.640;23.310;2023-03-14T06:46:54;15.95;;;10.60;;
11681;SDS011;5897;42.640;23.310;2023-03-14T06:49:21;20.75;;;11.38;;
11681;SDS011;5897;42.640;23.310;2023-03-14T06:51:48;16.98;;;10.68;;
11681;SDS011;5897;42.640;23.310;2023-03-14T06:54:15;15.30;;;10.52;;
11681;SDS011;5897;42.640;23.310;2023-03-14T06:56:42;16.42;;;10.52;;
11681;SDS011;5897;42.640;23.310;2023-03-14T06:59:09;18.73;;;9.98;;
11681;SDS011;5897;42.640;23.310;2023-03-14T07:01:36;12.88;;;9.60;;
11681;SDS011;5897;42.640;23.310;2023-03-14T07:04:04;18.02;;;9.52;;
11681;SDS011;5897;42.640;23.310;2023-03-14T07:06:32;13.75;;;10.15;;
11681;SDS011;5897;42.640;23.310;2023-03-14T07:08:59;17.27;;;9.90;;
11681;SDS011;5897;42.640;23.310;2023-03-14T07:11:26;17.75;;;9.45;;
11681;SDS011;5897;42.640;23.310;2023-03-14T07:13:53;15.52;;;9.82;;
11681;SDS011;5897;42.640;23.310;2023-03-14T07:16:20;18.52;;;10.68;;
11681;SDS011;5897;42.640;23.310;2023-03-14T07:18:47;15.02;;;10.75;;
11681;SDS011;5897;42.640;23.310;2023-03-14T07:21:15;16.33;;;9.60;;
11681;SDS011;5897;42.640;23.310;2023-03-14T07:23:42;15.40;;;8.75;;
11681;SDS011;5897;42.640;23.310;2023-03-14T07:26:09;13.55;;;8.52;;
11681;SDS011;5897;42.640;23.310;2023-03-14T07:28:36;9.98;;;7.97;;
11681;SDS011;5897;42.640;23.310;2023-03-14T07:31:02;14.38;;;7.15;;
11681;SDS011;5897;42.640;23.310;2023-03-14T07:33:30;12.20;;;7.63;;
11681;SDS011;5897;42.640;23.310;2023-03-14T07:35:57;12.10;;;6.88;;
11681;SDS011;5897;42.640;23.310;2023-03-14T07:38:25;10.43;;;6.82;;
11681;SDS011;5897;42.640;23.310;2023-03-14T07:40:57;10.02;;;6.43;;
11681;SDS011;5897;42.640;23.310;2023-03-14T07:43:24;10.15;;;6.05;;
11681;SDS011;5897;42.640;23.310;2023-03-14T07:45:51;8.88;;;6.35;;
11681;SDS011;5897;42.640;23.310;2023-03-14T07:48:17;11.50;;;6.85;;
11681;SDS011;5897;42.640;23.310;2023-03-14T07:50:47;10.85;;;6.03;;
11681;SDS011;5897;42.640;23.310;2023-03-14T07:53:15;8.20;;;5.88;;
11681;SDS011;5897;42.640;23.310;2023-03-14T07:55:43;9.32;;;5.80;;
11681;SDS011;5897;42.640;23.310;2023-03-14T07:58:11;15.10;;;5.82;;
11681;SDS011;5897;42.640;23.310;2023-03-14T08:00:38;8.60;;;6.45;;
11681;SDS011;5897;42.640;23.310;2023-03-14T08:03:05;7.53;;;6.05;;
11681;SDS011;5897;42.640;23.310;2023-03-14T08:05:33;7.70;;;6.53;;
11681;SDS011;5897;42.640;23.310;2023-03-14T08:08:00;10.65;;;6.38;;
11681;SDS011;5897;42.640;23.310;2023-03-14T08:10:27;12.57;;;6.75;;
11681;SDS011;5897;42.640;23.310;2023-03-14T08:12:56;12.02;;;7.38;;
11681;SDS011;5897;42.640;23.310;2023-03-14T08:15:24;10.25;;;7.32;;
11681;SDS011;5897;42.640;23.310;2023-03-14T08:17:51;11.35;;;6.90;;
11681;SDS011;5897;42.640;23.310;2023-03-14T08:20:19;11.70;;;6.95;;
11681;SDS011;5897;42.640;23.310;2023-03-14T08:22:47;10.05;;;6.80;;
11681;SDS011;5897;42.640;23.310;2023-03-14T08:25:14;10.60;;;6.78;;
11681;SDS011;5897;42.640;23.310;2023-03-14T08:27:42;9.05;;;6.93;;
11681;SDS011;5897;42.640;23.310;2023-03-14T08:30:11;12.18;;;6.75;;
11681;SDS011;5897;42.640;23.310;2023-03-14T08:32:40;10.48;;;7.30;;
11681;SDS011;5897;42.640;23.310;2023-03-14T08:35:08;10.27;;;6.95;;
11681;SDS011;5897;42.640;23.310;2023-03-14T08:37:36;8.85;;;6.10;;
11681;SDS011;5897;42.640;23.310;2023-03-14T08:40:04;8.30;;;6.28;;
11681;SDS011;5897;42.640;23.310;2023-03-14T08:42:32;7.97;;;6.32;;
11681;SDS011;5897;42.640;23.310;2023-03-14T08:44:59;11.30;;;6.50;;
11681;SDS011;5897;42.640;23.310;2023-03-14T08:47:28;7.68;;;5.90;;
11681;SDS011;5897;42.640;23.310;2023-03-14T08:49:55;7.53;;;5.90;;
11681;SDS011;5897;42.640;23.310;2023-03-14T08:52:22;8.77;;;6.72;;
11681;SDS011;5897;42.640;23.310;2023-03-14T08:54:49;10.65;;;7.68;;
11681;SDS011;5897;42.640;23.310;2023-03-14T08:57:16;13.60;;;7.80;;
11681;SDS011;5897;42.640;23.310;2023-03-14T08:59:42;11.88;;;6.72;;
11681;SDS011;5897;42.640;23.310;2023-03-14T09:02:10;10.15;;;6.43;;
11681;SDS011;5897;42.640;23.310;2023-03-14T09:04:39;7.40;;;6.35;;
11681;SDS011;5897;42.640;23.310;2023-03-14T09:07:06;8.23;;;6.47;;
11681;SDS011;5897;42.640;23.310;2023-03-14T09:09:33;10.70;;;6.45;;
11681;SDS011;5897;42.640;23.310;2023-03-14T09:12:00;8.15;;;6.30;;
11681;SDS011;5897;42.640;23.310;2023-03-14T09:14:27;10.32;;;6.85;;
11681;SDS011;5897;42.640;23.310;2023-03-14T09:16:54;8.13;;;6.85;;
11681;SDS011;5897;42.640;23.310;2023-03-14T09:19:20;8.13;;;6.53;;
11681;SDS011;5897;42.640;23.310;2023-03-14T09:21:48;12.55;;;7.25;;
11681;SDS011;5897;42.640;23.310;2023-03-14T09:24:15;15.13;;;7.93;;
11681;SDS011;5897;42.640;23.310;2023-03-14T09:26:43;13.63;;;7.72;;
11681;SDS011;5897;42.640;23.310;2023-03-14T09:29:10;9.27;;;7.40;;
11681;SDS011;5897;42.640;23.310;2023-03-14T09:31:36;9.35;;;6.63;;
11681;SDS011;5897;42.640;23.310;2023-03-14T09:34:03;8.35;;;6.35;;
11681;SDS011;5897;42.640;23.310;2023-03-14T09:36:30;9.93;;;6.90;;
11681;SDS011;5897;42.640;23.310;2023-03-14T09:38:58;8.15;;;6.63;;
11681;SDS011;5897;42.640;23.310;2023-03-14T09:41:26;11.75;;;6.30;;
11681;SDS011;5897;42.640;23.310;2023-03-14T09:43:58;13.98;;;6.88;;
11681;SDS011;5897;42.640;23.310;2023-03-14T09:46:29;8.98;;;6.78;;
11681;SDS011;5897;42.640;23.310;2023-03-14T09:48:59;9.57;;;7.53;;
11681;SDS011;5897;42.640;23.310;2023-03-14T09:51:25;13.20;;;7.80;;
11681;SDS011;5897;42.640;23.310;2023-03-14T09:53:53;12.80;;;7.38;;
11681;SDS011;5897;42.640;23.310;2023-03-14T09:56:23;11.05;;;6.75;;
11681;SDS011;5897;42.640;23.310;2023-03-14T09:58:53;13.30;;;7.43;;
11681;SDS011;5897;42.640;23.310;2023-03-14T10:01:22;10.85;;;7.35;;
11681;SDS011;5897;42.640;23.310;2023-03-14T10:03:54;19.30;;;8.30;;
11681;SDS011;5897;42.640;23.310;2023-03-14T10:06:23;12.18;;;7.95;;
11681;SDS011;5897;42.640;23.310;2023-03-14T10:08:52;11.63;;;7.78;;
11681;SDS011;5897;42.640;23.310;2023-03-14T10:11:21;13.95;;;7.65;;
11681;SDS011;5897;42.640;23.310;2023-03-14T10:13:50;11.90;;;8.07;;
11681;SDS011;5897;42.640;23.310;2023-03-14T10:16:29;11.95;;;8.82;;
11681;SDS011;5897;42.640;23.310;2023-03-14T10:19:01;9.73;;;7.57;;
11681;SDS011;5897;42.640;23.310;2023-03-14T10:21:30;12.40;;;7.70;;
11681;SDS011;5897;42.640;23.310;2023-03-14T10:26:57;16.33;;;8.20;;
11681;SDS011;5897;42.640;23.310;2023-03-14T10:29:27;10.05;;;7.43;;
11681;SDS011;5897;42.640;23.310;2023-03-14T10:31:56;12.50;;;7.35;;
11681;SDS011;5897;42.640;23.310;2023-03-14T10:34:27;16.50;;;8.10;;
11681;SDS011;5897;42.640;23.310;2023-03-14T10:36:56;10.68;;;7.60;;
11681;SDS011;5897;42.640;23.310;2023-03-14T10:39:26;14.20;;;8.13;;
11681;SDS011;5897;42.640;23.310;2023-03-14T10:42:03;13.65;;;7.88;;
11681;SDS011;5897;42.640;23.310;2023-03-14T10:44:33;10.82;;;7.47;;
11681;SDS011;5897;42.640;23.310;2023-03-14T10:47:02;9.50;;;6.57;;
11681;SDS011;5897;42.640;23.310;2023-03-14T10:49:31;9.63;;;6.63;;
11681;SDS011;5897;42.640;23.310;2023-03-14T10:52:12;11.68;;;6.15;;
11681;SDS011;5897;42.640;23.310;2023-03-14T10:54:41;11.35;;;6.68;;
11681;SDS011;5897;42.640;23.310;2023-03-14T10:57:15;11.32;;;6.85;;
11681;SDS011;5897;42.640;23.310;2023-03-14T10:59:42;11.55;;;6.45;;
11681;SDS011;5897;42.640;23.310;2023-03-14T11:05:06;9.75;;;6.03;;
11681;SDS011;5897;42.640;23.310;2023-03-14T11:07:40;10.25;;;6.00;;
11681;SDS011;5897;42.640;23.310;2023-03-14T11:10:10;10.48;;;6.18;;
11681;SDS011;5897;42.640;23.310;2023-03-14T11:12:49;8.80;;;5.25;;
11681;SDS011;5897;42.640;23.310;2023-03-14T11:15:27;12.32;;;5.70;;
11681;SDS011;5897;42.640;23.310;2023-03-14T11:18:06;7.93;;;5.30;;
11681;SDS011;5897;42.640;23.310;2023-03-14T11:21:02;7.68;;;5.47;;
11681;SDS011;5897;42.640;23.310;2023-03-14T11:23:39;7.97;;;5.10;;
11681;SDS011;5897;42.640;23.310;2023-03-14T11:26:17;7.75;;;6.00;;
11681;SDS011;5897;42.640;23.310;2023-03-14T11:28:56;10.90;;;5.75;;
11681;SDS011;5897;42.640;23.310;2023-03-14T11:31:25;10.43;;;5.20;;
11681;SDS011;5897;42.640;23.310;2023-03-14T11:33:55;6.05;;;4.28;;
11681;SDS011;5897;42.640;23.310;2023-03-14T11:36:27;6.85;;;4.35;;
11681;SDS011;5897;42.640;23.310;2023-03-14T11:38:58;5.57;;;4.10;;
11681;SDS011;5897;42.640;23.310;2023-03-14T11:41:26;5.70;;;4.63;;
11681;SDS011;5897;42.640;23.310;2023-03-14T11:44:01;5.65;;;4.15;;
11681;SDS011;5897;42.640;23.310;2023-03-14T11:46:36;7.18;;;4.10;;
11681;SDS011;5897;42.640;23.310;2023-03-14T11:49:11;5.45;;;3.50;;
11681;SDS011;5897;42.640;23.310;2023-03-14T11:51:46;5.72;;;3.60;;
11681;SDS011;5897;42.640;23.310;2023-03-14T11:54:18;5.05;;;3.40;;
11681;SDS011;5897;42.640;23.310;2023-03-14T11:56:53;3.30;;;3.00;;
11681;SDS011;5897;42.640;23.310;2023-03-14T11:59:27;5.65;;;3.10;;
11681;SDS011;5897;42.640;23.310;2023-03-14T12:01:58;3.72;;;3.28;;
11681;SDS011;5897;42.640;23.310;2023-03-14T12:04:40;3.00;;;2.40;;
11681;SDS011;5897;42.640;23.310;2023-03-14T12:07:16;6.85;;;2.90;;
11681;SDS011;5897;42.640;23.310;2023-03-14T12:09:45;4.05;;;3.03;;
11681;SDS011;5897;42.640;23.310;2023-03-14T12:12:16;5.97;;;3.30;;
11681;SDS011;5897;42.640;23.310;2023-03-14T12:14:51;6.63;;;2.92;;
11681;SDS011;5897;42.640;23.310;2023-03-14T12:17:21;5.20;;;2.88;;
11681;SDS011;5897;42.640;23.310;2023-03-14T12:19:58;5.53;;;3.75;;
11681;SDS011;5897;42.640;23.310;2023-03-14T12:22:29;4.75;;;3.40;;
11681;SDS011;5897;42.640;23.310;2023-03-14T12:25:00;6.97;;;3.53;;
11681;SDS011;5897;42.640;23.310;2023-03-14T12:27:42;5.20;;;4.70;;
11681;SDS011;5897;42.640;23.310;2023-03-14T12:30:23;4.75;;;2.92;;
11681;SDS011;5897;42.640;23.310;2023-03-14T12:36:02;12.57;;;8.75;;
11681;SDS011;5897;42.640;23.310;2023-03-14T12:38:47;6.70;;;3.20;;
11681;SDS011;5897;42.640;23.310;2023-03-14T12:41:23;17.60;;;15.27;;
11681;SDS011;5897;42.640;23.310;2023-03-14T12:43:55;11.50;;;8.55;;
11681;SDS011;5897;42.640;23.310;2023-03-14T12:46:24;4.57;;;2.72;;
11681;SDS011;5897;42.640;23.310;2023-03-14T12:48:55;5.53;;;2.72;;
11681;SDS011;5897;42.640;23.310;2023-03-14T12:51:30;3.90;;;2.60;;
11681;SDS011;5897;42.640;23.310;2023-03-14T12:54:27;3.78;;;2.75;;
11681;SDS011;5897;42.640;23.310;2023-03-14T12:57:09;4.57;;;3.45;;
11681;SDS011;5897;42.640;23.310;2023-03-14T12:59:47;6.28;;;2.35;;
11681;SDS011;5897;42.640;23.310;2023-03-14T13:02:20;6.78;;;2.67;;
11681;SDS011;5897;42.640;23.310;2023-03-14T13:04:50;3.45;;;2.42;;
11681;SDS011;5897;42.640;23.310;2023-03-14T13:07:29;6.80;;;2.30;;
11681;SDS011;5897;42.640;23.310;2023-03-14T13:10:13;3.97;;;2.20;;
11681;SDS011;5897;42.640;23.310;2023-03-14T13:12:48;3.75;;;2.42;;
11681;SDS011;5897;42.640;23.310;2023-03-14T13:15:18;6.75;;;2.10;;
11681;SDS011;5897;42.640;23.310;2023-03-14T13:17:51;3.67;;;2.30;;
11681;SDS011;5897;42.640;23.310;2023-03-14T13:20:22;4.68;;;2.10;;
11681;SDS011;5897;42.640;23.310;2023-03-14T13:22:52;7.30;;;2.67;;
11681;SDS011;5897;42.640;23.310;2023-03-14T13:25:19;7.15;;;3.30;;
11681;SDS011;5897;42.640;23.310;2023-03-14T13:27:48;3.45;;;2.47;;
11681;SDS011;5897;42.640;23.310;2023-03-14T13:30:16;3.13;;;2.15;;
11681;SDS011;5897;42.640;23.310;2023-03-14T13:32:47;4.10;;;2.20;;
11681;SDS011;5897;42.640;23.310;2023-03-14T13:35:17;5.28;;;2.03;;
11681;SDS011;5897;42.640;23.310;2023-03-14T13:37:46;3.75;;;2.10;;
11681;SDS011;5897;42.640;23.310;2023-03-14T13:40:21;2.95;;;2.20;;
11681;SDS011;5897;42.640;23.310;2023-03-14T13:42:59;5.00;;;1.90;;
11681;SDS011;5897;42.640;23.310;2023-03-14T13:45:28;6.13;;;1.80;;
11681;SDS011;5897;42.640;23.310;2023-03-14T13:47:55;7.00;;;2.20;;
11681;SDS011;5897;42.640;23.310;2023-03-14T13:50:24;3.15;;;2.47;;
11681;SDS011;5897;42.640;23.310;2023-03-14T13:52:54;3.05;;;2.45;;
11681;SDS011;5897;42.640;23.310;2023-03-14T13:55:22;4.13;;;1.80;;
11681;SDS011;5897;42.640;23.310;2023-03-14T13:57:49;3.42;;;1.88;;
11681;SDS011;5897;42.640;23.310;2023-03-14T14:00:20;3.63;;;2.15;;
11681;SDS011;5897;42.640;23.310;2023-03-14T14:02:51;2.90;;;2.38;;
11681;SDS011;5897;42.640;23.310;2023-03-14T14:05:19;5.35;;;2.45;;
11681;SDS011;5897;42.640;23.310;2023-03-14T14:07:49;5.47;;;2.33;;
11681;SDS011;5897;42.640;23.310;2023-03-14T14:10:17;6.07;;;2.00;;
11681;SDS011;5897;42.640;23.310;2023-03-14T14:12:46;5.65;;;2.88;;
11681;SDS011;5897;42.640;23.310;2023-03-14T14:15:17;8.07;;;2.83;;
11681;SDS011;5897;42.640;23.310;2023-03-14T14:17:47;2.83;;;2.08;;
11681;SDS011;5897;42.640;23.310;2023-03-14T14:20:20;4.25;;;2.10;;
11681;SDS011;5897;42.640;23.310;2023-03-14T14:22:51;11.23;;;2.47;;
11681;SDS011;5897;42.640;23.310;2023-03-14T14:25:18;4.07;;;2.20;;
11681;SDS011;5897;42.640;23.310;2023-03-14T14:27:48;4.82;;;2.30;;
11681;SDS011;5897;42.640;23.310;2023-03-14T14:30:24;8.02;;;2.50;;
11681;SDS011;5897;42.640;23.310;2023-03-14T14:32:54;3.47;;;2.08;;
11681;SDS011;5897;42.640;23.310;2023-03-14T14:35:37;3.42;;;1.80;;
11681;SDS011;5897;42.640;23.310;2023-03-14T14:38:10;4.10;;;1.88;;
11681;SDS011;5897;42.640;23.310;2023-03-14T14:40:45;2.88;;;2.40;;
11681;SDS011;5897;42.640;23.310;2023-03-14T14:43:15;2.50;;;2.30;;
11681;SDS011;5897;42.640;23.310;2023-03-14T14:45:45;3.35;;;1.48;;
11681;SDS011;5897;42.640;23.310;2023-03-14T14:48:14;3.70;;;1.75;;
11681;SDS011;5897;42.640;23.310;2023-03-14T14:50:48;12.55;;;2.30;;
11681;SDS011;5897;42.640;23.310;2023-03-14T14:53:23;4.93;;;2.35;;
11681;SDS011;5897;42.640;23.310;2023-03-14T14:55:54;3.33;;;2.13;;
11681;SDS011;5897;42.640;23.310;2023-03-14T14:58:24;3.45;;;1.70;;
11681;SDS011;5897;42.640;23.310;2023-03-14T15:00:54;3.72;;;1.60;;